sensor_id;sensor_type;location;lat;lon;timestamp;pressure;altitude;pressure_sealevel;temperature;humidity
64908;BME280;64365;-1.756;110.040;2022-10-18T00:01:57;102554.56;;;15.86;100.00
64908;BME280;64365;-1.756;110.040;2022-10-18T00:04:24;102547.66;;;15.85;100.00
64908;BME280;64365;-1.756;110.040;2022-10-18T00:06:51;102549.94;;;15.83;100.00
64908;BME280;64365;-1.756;110.040;2022-10-18T00:09:17;102542.22;;;15.81;100.00
64908;BME280;64365;-1.756;110.040;2022-10-18T00:11:45;102541.34;;;15.77;100.00
64908;BME280;64365;-1.756;110.040;2022-10-18T00:14:12;102545.13;;;15.73;100.00
64908;BME280;64365;-1.756;110.040;2022-10-18T00:16:38;102553.16;;;15.73;100.00
64908;BME280;64365;-1.756;110.040;2022-10-18T00:19:05;102549.19;;;15.66;100.00
64908;BME280;64365;-1.756;110.040;2022-10-18T00:21:31;102539.19;;;15.63;100.00
64908;BME280;64365;-1.756;110.040;2022-10-18T00:23:58;102539.91;;;15.60;100.00
64908;BME280;64365;-1.756;110.040;2022-10-18T00:26:26;102530.69;;;15.58;100.00
64908;BME280;64365;-1.756;110.040;2022-10-18T00:28:56;102540.59;;;15.57;100.00
64908;BME280;64365;-1.756;110.040;2022-10-18T00:31:25;102543.66;;;15.56;100.00
64908;BME280;64365;-1.756;110.040;2022-10-18T00:33:54;102540.19;;;15.55;100.00
64908;BME280;64365;-1.756;110.040;2022-10-18T00:36:22;102541.75;;;15.56;100.00
64908;BME280;64365;-1.756;110.040;2022-10-18T00:38:49;102537.09;;;15.53;100.00
64908;BME280;64365;-1.756;110.040;2022-10-18T00:41:18;102542.75;;;15.48;100.00
64908;BME280;64365;-1.756;110.040;2022-10-18T00:43:59;102539.53;;;15.39;100.00
64908;BME280;64365;-1.756;110.040;2022-10-18T00:46:28;102546.75;;;15.38;100.00
64908;BME280;64365;-1.756;110.040;2022-10-18T00:48:57;102545.56;;;15.36;100.00
64908;BME280;64365;-1.756;110.040;2022-10-18T00:51:26;102548.53;;;15.30;100.00
64908;BME280;64365;-1.756;110.040;2022-10-18T00:53:53;102550.38;;;15.26;99.97
64908;BME280;64365;-1.756;110.040;2022-10-18T00:56:20;102549.53;;;15.22;100.00
64908;BME280;64365;-1.756;110.040;2022-10-18T00:58:47;102542.53;;;15.18;100.00
64908;BME280;64365;-1.756;110.040;2022-10-18T01:01:15;102544.72;;;15.12;99.58
64908;BME280;64365;-1.756;110.040;2022-10-18T01:03:42;102552.31;;;15.10;99.22
64908;BME280;64365;-1.756;110.040;2022-10-18T01:06:09;102552.28;;;15.06;98.88
64908;BME280;64365;-1.756;110.040;2022-10-18T01:08:56;102553.66;;;15.00;99.36
64908;BME280;64365;-1.756;110.040;2022-10-18T01:11:49;102557.41;;;14.95;99.86
64908;BME280;64365;-1.756;110.040;2022-10-18T01:14:26;102561.34;;;15.02;100.00
64908;BME280;64365;-1.756;110.040;2022-10-18T01:17:00;102567.53;;;15.06;100.00
64908;BME280;64365;-1.756;110.040;2022-10-18T01:19:52;102561.69;;;15.00;100.00
64908;BME280;64365;-1.756;110.040;2022-10-18T01:22:27;102563.16;;;14.97;100.00
64908;BME280;64365;-1.756;110.040;2022-10-18T01:25:14;102570.00;;;14.95;100.00
64908;BME280;64365;-1.756;110.040;2022-10-18T01:27:48;102568.03;;;14.92;100.00
64908;BME280;64365;-1.756;110.040;2022-10-18T01:30:39;102563.28;;;14.85;100.00
64908;BME280;64365;-1.756;110.040;2022-10-18T01:33:14;102567.63;;;14.90;100.00
64908;BME280;64365;-1.756;110.040;2022-10-18T01:35:44;102567.63;;;14.90;100.00
64908;BME280;64365;-1.756;110.040;2022-10-18T01:38:14;102573.38;;;14.92;100.00
64908;BME280;64365;-1.756;110.040;2022-10-18T01:40:44;102565.69;;;14.90;100.00
64908;BME280;64365;-1.756;110.040;2022-10-18T01:43:13;102564.84;;;14.86;100.00
64908;BME280;64365;-1.756;110.040;2022-10-18T01:45:43;102565.88;;;14.81;100.00
64908;BME280;64365;-1.756;110.040;2022-10-18T01:48:11;102564.72;;;14.79;100.00
64908;BME280;64365;-1.756;110.040;2022-10-18T01:50:39;102566.94;;;14.77;100.00
64908;BME280;64365;-1.756;110.040;2022-10-18T01:53:22;102574.56;;;14.75;99.48
64908;BME280;64365;-1.756;110.040;2022-10-18T01:55:54;102571.44;;;14.73;99.22
64908;BME280;64365;-1.756;110.040;2022-10-18T01:58:27;102579.13;;;14.74;100.00
64908;BME280;64365;-1.756;110.040;2022-10-18T02:01:02;102583.09;;;14.80;100.00
64908;BME280;64365;-1.756;110.040;2022-10-18T02:03:31;102576.69;;;14.85;100.00
64908;BME280;64365;-1.756;110.040;2022-10-18T02:06:05;102581.94;;;14.81;100.00
64908;BME280;64365;-1.756;110.040;2022-10-18T02:08:36;102577.56;;;14.73;100.00
64908;BME280;64365;-1.756;110.040;2022-10-18T02:11:05;102581.03;;;14.74;100.00
64908;BME280;64365;-1.756;110.040;2022-10-18T02:13:35;102587.06;;;14.71;100.00
64908;BME280;64365;-1.756;110.040;2022-10-18T02:16:09;102575.44;;;14.63;100.00
64908;BME280;64365;-1.756;110.040;2022-10-18T02:18:41;102579.09;;;14.58;100.00
64908;BME280;64365;-1.756;110.040;2022-10-18T02:21:12;102579.03;;;14.55;100.00
64908;BME280;64365;-1.756;110.040;2022-10-18T02:23:42;102586.88;;;14.47;100.00
64908;BME280;64365;-1.756;110.040;2022-10-18T02:26:10;102595.19;;;14.42;99.25
64908;BME280;64365;-1.756;110.040;2022-10-18T02:28:37;102585.97;;;14.40;100.00
64908;BME280;64365;-1.756;110.040;2022-10-18T02:31:11;102579.81;;;14.39;99.64
64908;BME280;64365;-1.756;110.040;2022-10-18T02:33:45;102582.13;;;14.41;100.00
64908;BME280;64365;-1.756;110.040;2022-10-18T02:36:18;102569.81;;;14.36;99.73
64908;BME280;64365;-1.756;110.040;2022-10-18T02:38:51;102578.34;;;14.42;99.83
64908;BME280;64365;-1.756;110.040;2022-10-18T02:41:24;102576.78;;;14.41;99.75
64908;BME280;64365;-1.756;110.040;2022-10-18T02:43:51;102577.22;;;14.43;100.00
64908;BME280;64365;-1.756;110.040;2022-10-18T02:46:19;102581.47;;;14.44;100.00
64908;BME280;64365;-1.756;110.040;2022-10-18T02:48:46;102582.59;;;14.43;99.91
64908;BME280;64365;-1.756;110.040;2022-10-18T02:51:12;102580.66;;;14.43;100.00
64908;BME280;64365;-1.756;110.040;2022-10-18T02:53:39;102589.50;;;14.44;100.00
64908;BME280;64365;-1.756;110.040;2022-10-18T02:56:06;102575.41;;;14.47;100.00
64908;BME280;64365;-1.756;110.040;2022-10-18T02:58:32;102580.00;;;14.46;100.00
64908;BME280;64365;-1.756;110.040;2022-10-18T03:00:59;102581.03;;;14.42;100.00
64908;BME280;64365;-1.756;110.040;2022-10-18T03:03:27;102584.03;;;14.40;100.00
64908;BME280;64365;-1.756;110.040;2022-10-18T03:05:53;102588.63;;;14.40;100.00
64908;BME280;64365;-1.756;110.040;2022-10-18T03:08:20;102589.75;;;14.39;100.00
64908;BME280;64365;-1.756;110.040;2022-10-18T03:10:47;102582.06;;;14.37;100.00
64908;BME280;64365;-1.756;110.040;2022-10-18T03:13:13;102581.63;;;14.35;100.00
64908;BME280;64365;-1.756;110.040;2022-10-18T03:15:40;102570.75;;;14.28;100.00
64908;BME280;64365;-1.756;110.040;2022-10-18T03:18:06;102580.25;;;14.25;100.00
64908;BME280;64365;-1.756;110.040;2022-10-18T03:20:35;102577.94;;;14.24;100.00
64908;BME280;64365;-1.756;110.040;2022-10-18T03:23:02;102573.59;;;14.19;100.00
64908;BME280;64365;-1.756;110.040;2022-10-18T03:25:28;102572.06;;;14.18;100.00
64908;BME280;64365;-1.756;110.040;2022-10-18T03:27:55;102576.19;;;14.15;100.00
64908;BME280;64365;-1.756;110.040;2022-10-18T03:30:21;102588.16;;;14.22;100.00
64908;BME280;64365;-1.756;110.040;2022-10-18T03:32:47;102590.94;;;14.25;100.00
64908;BME280;64365;-1.756;110.040;2022-10-18T03:35:14;102597.94;;;14.30;100.00
64908;BME280;64365;-1.756;110.040;2022-10-18T03:37:42;102590.94;;;14.25;100.00
64908;BME280;64365;-1.756;110.040;2022-10-18T03:40:09;102591.53;;;14.19;100.00
64908;BME280;64365;-1.756;110.040;2022-10-18T03:42:36;102600.50;;;14.10;100.00
64908;BME280;64365;-1.756;110.040;2022-10-18T03:45:03;102596.63;;;14.08;100.00
64908;BME280;64365;-1.756;110.040;2022-10-18T03:47:29;102599.75;;;14.10;100.00
64908;BME280;64365;-1.756;110.040;2022-10-18T03:49:57;102602.06;;;14.11;100.00
64908;BME280;64365;-1.756;110.040;2022-10-18T03:52:23;102598.59;;;14.11;100.00
64908;BME280;64365;-1.756;110.040;2022-10-18T03:54:51;102600.50;;;14.10;100.00
64908;BME280;64365;-1.756;110.040;2022-10-18T03:57:18;102597.06;;;14.10;100.00
64908;BME280;64365;-1.756;110.040;2022-10-18T03:59:44;102594.28;;;14.06;100.00
64908;BME280;64365;-1.756;110.040;2022-10-18T04:02:12;102587.72;;;14.04;100.00
64908;BME280;64365;-1.756;110.040;2022-10-18T04:04:39;102590.81;;;14.06;100.00
64908;BME280;64365;-1.756;110.040;2022-10-18T04:07:05;102584.38;;;14.07;100.00
64908;BME280;64365;-1.756;110.040;2022-10-18T04:09:32;102591.38;;;14.11;100.00
64908;BME280;64365;-1.756;110.040;2022-10-18T04:12:00;102579.97;;;14.14;100.00
64908;BME280;64365;-1.756;110.040;2022-10-18T04:14:26;102577.66;;;14.13;100.00
64908;BME280;64365;-1.756;110.040;2022-10-18T04:16:53;102586.78;;;14.12;100.00
64908;BME280;64365;-1.756;110.040;2022-10-18T04:19:19;102589.81;;;14.10;100.00
64908;BME280;64365;-1.756;110.040;2022-10-18T04:21:46;102586.44;;;14.13;100.00
64908;BME280;64365;-1.756;110.040;2022-10-18T04:24:12;102581.28;;;14.21;100.00
64908;BME280;64365;-1.756;110.040;2022-10-18T04:26:39;102576.00;;;14.24;100.00
64908;BME280;64365;-1.756;110.040;2022-10-18T04:29:07;102573.59;;;14.19;100.00
64908;BME280;64365;-1.756;110.040;2022-10-18T04:31:33;102589.28;;;14.37;100.00
64908;BME280;64365;-1.756;110.040;2022-10-18T04:34:00;102586.81;;;14.44;100.00
64908;BME280;64365;-1.756;110.040;2022-10-18T04:36:27;102576.88;;;14.44;100.00
64908;BME280;64365;-1.756;110.040;2022-10-18T04:38:53;102580.66;;;14.43;100.00
64908;BME280;64365;-1.756;110.040;2022-10-18T04:41:20;102578.34;;;14.42;100.00
64908;BME280;64365;-1.756;110.040;2022-10-18T04:43:46;102577.31;;;14.46;100.00
64908;BME280;64365;-1.756;110.040;2022-10-18T04:46:14;102588.03;;;14.46;100.00
64908;BME280;64365;-1.756;110.040;2022-10-18T04:48:40;102585.50;;;14.38;100.00
64908;BME280;64365;-1.756;110.040;2022-10-18T04:51:07;102587.22;;;14.30;100.00
64908;BME280;64365;-1.756;110.040;2022-10-18T04:53:33;102594.38;;;14.26;100.00
64908;BME280;64365;-1.756;110.040;2022-10-18T04:56:00;102588.63;;;14.24;100.00
64908;BME280;64365;-1.756;110.040;2022-10-18T04:58:27;102592.50;;;14.26;100.00
64908;BME280;64365;-1.756;110.040;2022-10-18T05:00:53;102589.13;;;14.29;100.00
64908;BME280;64365;-1.756;110.040;2022-10-18T05:03:21;102598.28;;;14.28;100.00
64908;BME280;64365;-1.756;110.040;2022-10-18T05:05:47;102599.38;;;14.27;100.00
64908;BME280;64365;-1.756;110.040;2022-10-18T05:08:14;102592.75;;;14.21;100.00
64908;BME280;64365;-1.756;110.040;2022-10-18T05:10:41;102607.06;;;14.13;100.00
64908;BME280;64365;-1.756;110.040;2022-10-18T05:13:07;102602.41;;;14.10;100.00
64908;BME280;64365;-1.756;110.040;2022-10-18T05:15:34;102615.69;;;14.06;100.00
64908;BME280;64365;-1.756;110.040;2022-10-18T05:18:00;102620.16;;;14.02;100.00
64908;BME280;64365;-1.756;110.040;2022-10-18T05:20:28;102619.38;;;14.02;100.00
64908;BME280;64365;-1.756;110.040;2022-10-18T05:22:56;102627.16;;;14.07;100.00
64908;BME280;64365;-1.756;110.040;2022-10-18T05:25:22;102624.81;;;14.05;100.00
64908;BME280;64365;-1.756;110.040;2022-10-18T05:27:49;102617.91;;;14.04;100.00
64908;BME280;64365;-1.756;110.040;2022-10-18T05:30:16;102627.72;;;14.00;100.00
64908;BME280;64365;-1.756;110.040;2022-10-18T05:32:42;102626.09;;;13.95;100.00
64908;BME280;64365;-1.756;110.040;2022-10-18T05:35:09;102634.47;;;13.94;100.00
64908;BME280;64365;-1.756;110.040;2022-10-18T05:37:36;102634.34;;;13.90;100.00
64908;BME280;64365;-1.756;110.040;2022-10-18T05:40:04;102623.25;;;13.88;100.00
64908;BME280;64365;-1.756;110.040;2022-10-18T05:42:30;102640.81;;;13.89;100.00
64908;BME280;64365;-1.756;110.040;2022-10-18T05:44:57;102636.16;;;13.86;100.00
64908;BME280;64365;-1.756;110.040;2022-10-18T05:47:23;102633.47;;;13.86;100.00
64908;BME280;64365;-1.756;110.040;2022-10-18T05:49:50;102631.56;;;13.87;100.00
64908;BME280;64365;-1.756;110.040;2022-10-18T05:52:16;102625.22;;;13.91;100.00
64908;BME280;64365;-1.756;110.040;2022-10-18T05:54:44;102635.91;;;13.91;100.00
64908;BME280;64365;-1.756;110.040;2022-10-18T05:57:11;102662.19;;;13.89;100.00
64908;BME280;64365;-1.756;110.040;2022-10-18T05:59:37;102663.34;;;13.88;100.00
64908;BME280;64365;-1.756;110.040;2022-10-18T06:02:04;102659.97;;;13.91;100.00
64908;BME280;64365;-1.756;110.040;2022-10-18T06:04:30;102646.69;;;13.95;100.00
64908;BME280;64365;-1.756;110.040;2022-10-18T06:06:57;102662.41;;;13.96;100.00
64908;BME280;64365;-1.756;110.040;2022-10-18T06:09:23;102672.22;;;13.92;100.00
64908;BME280;64365;-1.756;110.040;2022-10-18T06:11:51;102674.03;;;13.88;99.45
64908;BME280;64365;-1.756;110.040;2022-10-18T06:14:18;102667.25;;;13.78;99.11
64908;BME280;64365;-1.756;110.040;2022-10-18T06:16:44;102682.84;;;13.76;98.73
64908;BME280;64365;-1.756;110.040;2022-10-18T06:19:11;102681.63;;;13.74;98.96
64908;BME280;64365;-1.756;110.040;2022-10-18T06:21:37;102672.28;;;13.68;98.44
64908;BME280;64365;-1.756;110.040;2022-10-18T06:24:04;102681.31;;;13.63;99.03
64908;BME280;64365;-1.756;110.040;2022-10-18T06:26:31;102692.34;;;13.61;100.00
64908;BME280;64365;-1.756;110.040;2022-10-18T06:28:59;102693.00;;;13.58;99.77
64908;BME280;64365;-1.756;110.040;2022-10-18T06:31:25;102689.03;;;13.52;98.69
64908;BME280;64365;-1.756;110.040;2022-10-18T06:33:54;102694.25;;;13.48;98.76
64908;BME280;64365;-1.756;110.040;2022-10-18T06:36:21;102694.19;;;13.45;98.37
64908;BME280;64365;-1.756;110.040;2022-10-18T06:38:47;102706.19;;;13.39;97.74
64908;BME280;64365;-1.756;110.040;2022-10-18T06:41:14;102712.06;;;13.32;96.99
64908;BME280;64365;-1.756;110.040;2022-10-18T06:43:42;102709.19;;;13.25;97.46
64908;BME280;64365;-1.756;110.040;2022-10-18T06:46:11;102723.19;;;13.22;97.29
64908;BME280;64365;-1.756;110.040;2022-10-18T06:48:37;102721.53;;;13.17;96.83
64908;BME280;64365;-1.756;110.040;2022-10-18T06:51:05;102724.88;;;13.14;96.70
64908;BME280;64365;-1.756;110.040;2022-10-18T06:53:35;102722.84;;;13.11;98.66
64908;BME280;64365;-1.756;110.040;2022-10-18T06:56:03;102732.41;;;13.12;98.44
64908;BME280;64365;-1.756;110.040;2022-10-18T06:58:31;102729.31;;;13.10;97.23
64908;BME280;64365;-1.756;110.040;2022-10-18T07:00:57;102730.31;;;13.05;96.70
64908;BME280;64365;-1.756;110.040;2022-10-18T07:03:25;102740.22;;;13.05;96.79
64908;BME280;64365;-1.756;110.040;2022-10-18T07:05:52;102745.53;;;13.05;96.51
64908;BME280;64365;-1.756;110.040;2022-10-18T07:08:18;102737.19;;;13.06;96.99
64908;BME280;64365;-1.756;110.040;2022-10-18T07:10:50;102732.63;;;13.07;97.70
64908;BME280;64365;-1.756;110.040;2022-10-18T07:13:17;102725.22;;;13.12;98.55
64908;BME280;64365;-1.756;110.040;2022-10-18T07:15:43;102735.53;;;13.14;96.80
64908;BME280;64365;-1.756;110.040;2022-10-18T07:18:10;102735.97;;;13.16;95.86
64908;BME280;64365;-1.756;110.040;2022-10-18T07:20:37;102747.13;;;13.18;95.65
64908;BME280;64365;-1.756;110.040;2022-10-18T07:23:04;102745.34;;;13.22;95.08
64908;BME280;64365;-1.756;110.040;2022-10-18T07:25:32;102753.13;;;13.27;94.82
64908;BME280;64365;-1.756;110.040;2022-10-18T07:27:59;102747.44;;;13.29;94.18
64908;BME280;64365;-1.756;110.040;2022-10-18T07:30:26;102748.00;;;13.35;94.30
64908;BME280;64365;-1.756;110.040;2022-10-18T07:32:52;102750.25;;;13.45;94.51
64908;BME280;64365;-1.756;110.040;2022-10-18T07:35:19;102761.59;;;13.54;94.34
64908;BME280;64365;-1.756;110.040;2022-10-18T07:37:47;102756.47;;;13.61;94.06
64908;BME280;64365;-1.756;110.040;2022-10-18T07:40:13;102751.13;;;13.74;93.35
64908;BME280;64365;-1.756;110.040;2022-10-18T07:42:39;102749.94;;;14.00;94.94
64908;BME280;64365;-1.756;110.040;2022-10-18T07:45:07;102750.72;;;14.28;94.12
64908;BME280;64365;-1.756;110.040;2022-10-18T07:47:33;102757.97;;;14.56;92.69
64908;BME280;64365;-1.756;110.040;2022-10-18T07:50:00;102769.16;;;14.90;93.06
64908;BME280;64365;-1.756;110.040;2022-10-18T07:52:26;102770.59;;;15.36;93.41
64908;BME280;64365;-1.756;110.040;2022-10-18T07:54:54;102778.81;;;15.94;91.01
64908;BME280;64365;-1.756;110.040;2022-10-18T07:57:20;102780.75;;;16.56;87.24
64908;BME280;64365;-1.756;110.040;2022-10-18T07:59:47;102781.25;;;17.08;83.50
64908;BME280;64365;-1.756;110.040;2022-10-18T08:02:20;102783.00;;;17.47;80.28
64908;BME280;64365;-1.756;110.040;2022-10-18T08:04:46;102773.06;;;17.81;78.64
64908;BME280;64365;-1.756;110.040;2022-10-18T08:07:13;102780.34;;;18.08;77.04
64908;BME280;64365;-1.756;110.040;2022-10-18T08:09:39;102778.53;;;18.19;76.15
64908;BME280;64365;-1.756;110.040;2022-10-18T08:12:07;102786.03;;;18.37;75.70
64908;BME280;64365;-1.756;110.040;2022-10-18T08:14:34;102780.06;;;18.54;75.53
64908;BME280;64365;-1.756;110.040;2022-10-18T08:17:00;102778.56;;;18.60;74.09
64908;BME280;64365;-1.756;110.040;2022-10-18T08:19:27;102783.81;;;18.46;74.02
64908;BME280;64365;-1.756;110.040;2022-10-18T08:21:53;102788.41;;;18.45;75.79
64908;BME280;64365;-1.756;110.040;2022-10-18T08:24:20;102780.81;;;18.51;75.75
64908;BME280;64365;-1.756;110.040;2022-10-18T08:26:47;102794.38;;;18.65;75.76
64908;BME280;64365;-1.756;110.040;2022-10-18T08:29:15;102778.78;;;18.85;76.19
64908;BME280;64365;-1.756;110.040;2022-10-18T08:31:42;102767.97;;;19.27;75.25
64908;BME280;64365;-1.756;110.040;2022-10-18T08:34:08;102776.25;;;19.66;74.18
64908;BME280;64365;-1.756;110.040;2022-10-18T08:36:36;102782.22;;;20.05;72.59
64908;BME280;64365;-1.756;110.040;2022-10-18T08:39:03;102776.91;;;20.41;70.73
64908;BME280;64365;-1.756;110.040;2022-10-18T08:41:43;102781.97;;;20.71;69.27
64908;BME280;64365;-1.756;110.040;2022-10-18T08:44:18;102789.28;;;21.07;68.73
64908;BME280;64365;-1.756;110.040;2022-10-18T08:46:47;102786.94;;;21.41;67.34
64908;BME280;64365;-1.756;110.040;2022-10-18T08:49:20;102789.19;;;21.64;64.55
64908;BME280;64365;-1.756;110.040;2022-10-18T08:51:48;102784.50;;;21.83;65.17
64908;BME280;64365;-1.756;110.040;2022-10-18T08:54:22;102799.09;;;22.03;63.96
64908;BME280;64365;-1.756;110.040;2022-10-18T08:56:57;102801.75;;;22.14;61.91
64908;BME280;64365;-1.756;110.040;2022-10-18T08:59:25;102802.81;;;22.31;62.52
64908;BME280;64365;-1.756;110.040;2022-10-18T09:02:00;102788.44;;;22.45;62.70
64908;BME280;64365;-1.756;110.040;2022-10-18T09:04:37;102793.72;;;22.63;61.82
64908;BME280;64365;-1.756;110.040;2022-10-18T09:07:33;102803.63;;;22.84;61.57
64908;BME280;64365;-1.756;110.040;2022-10-18T09:10:08;102806.13;;;23.06;58.30
64908;BME280;64365;-1.756;110.040;2022-10-18T09:12:53;102810.25;;;23.21;58.72
64908;BME280;64365;-1.756;110.040;2022-10-18T09:15:29;102803.16;;;23.35;58.79
64908;BME280;64365;-1.756;110.040;2022-10-18T09:18:06;102813.47;;;23.51;55.83
64908;BME280;64365;-1.756;110.040;2022-10-18T09:20:46;102819.88;;;23.68;56.92
64908;BME280;64365;-1.756;110.040;2022-10-18T09:23:17;102815.75;;;23.87;55.61
64908;BME280;64365;-1.756;110.040;2022-10-18T09:25:46;102818.28;;;24.01;54.92
64908;BME280;64365;-1.756;110.040;2022-10-18T09:28:15;102822.38;;;24.17;55.20
64908;BME280;64365;-1.756;110.040;2022-10-18T09:30:52;102818.00;;;24.23;53.22
64908;BME280;64365;-1.756;110.040;2022-10-18T09:33:29;102814.56;;;24.19;52.83
64908;BME280;64365;-1.756;110.040;2022-10-18T09:36:00;102816.25;;;24.09;53.01
64908;BME280;64365;-1.756;110.040;2022-10-18T09:38:31;102817.03;;;24.10;54.85
64908;BME280;64365;-1.756;110.040;2022-10-18T09:41:02;102826.97;;;24.20;54.61
64908;BME280;64365;-1.756;110.040;2022-10-18T09:43:40;102829.19;;;24.29;53.36
64908;BME280;64365;-1.756;110.040;2022-10-18T09:46:12;102826.66;;;24.42;53.07
64908;BME280;64365;-1.756;110.040;2022-10-18T09:48:43;102830.47;;;24.48;51.66
64908;BME280;64365;-1.756;110.040;2022-10-18T09:51:13;102831.53;;;24.54;52.37
64908;BME280;64365;-1.756;110.040;2022-10-18T09:53:45;102828.69;;;24.65;51.88
64908;BME280;64365;-1.756;110.040;2022-10-18T09:56:17;102831.28;;;24.72;50.70
64908;BME280;64365;-1.756;110.040;2022-10-18T09:58:48;102839.38;;;24.76;50.41
64908;BME280;64365;-1.756;110.040;2022-10-18T10:01:20;102842.47;;;24.78;49.79
64908;BME280;64365;-1.756;110.040;2022-10-18T10:03:47;102847.59;;;24.72;48.91
64908;BME280;64365;-1.756;110.040;2022-10-18T10:06:16;102839.97;;;24.63;48.87
64908;BME280;64365;-1.756;110.040;2022-10-18T10:08:46;102844.38;;;24.53;49.44
64908;BME280;64365;-1.756;110.040;2022-10-18T10:11:28;102850.03;;;24.35;48.90
64908;BME280;64365;-1.756;110.040;2022-10-18T10:13:56;102844.88;;;24.17;49.75
64908;BME280;64365;-1.756;110.040;2022-10-18T10:16:25;102852.47;;;23.99;50.14
64908;BME280;64365;-1.756;110.040;2022-10-18T10:18:52;102849.84;;;23.88;50.78
64908;BME280;64365;-1.756;110.040;2022-10-18T10:21:19;102853.78;;;23.87;52.41
64908;BME280;64365;-1.756;110.040;2022-10-18T10:23:51;102852.22;;;23.90;51.09
64908;BME280;64365;-1.756;110.040;2022-10-18T10:26:22;102863.28;;;24.02;51.71
64908;BME280;64365;-1.756;110.040;2022-10-18T10:28:49;102857.84;;;24.06;51.67
64908;BME280;64365;-1.756;110.040;2022-10-18T10:31:20;102857.53;;;24.00;50.46
64908;BME280;64365;-1.756;110.040;2022-10-18T10:33:59;102858.41;;;23.90;50.17
64908;BME280;64365;-1.756;110.040;2022-10-18T10:36:26;102863.84;;;23.90;51.55
64908;BME280;64365;-1.756;110.040;2022-10-18T10:39:11;102870.34;;;23.96;52.57
64908;BME280;64365;-1.756;110.040;2022-10-18T10:41:40;102873.22;;;23.82;51.81
64908;BME280;64365;-1.756;110.040;2022-10-18T10:44:14;102863.56;;;23.77;51.39
64908;BME280;64365;-1.756;110.040;2022-10-18T10:46:41;102867.09;;;23.74;50.92
64908;BME280;64365;-1.756;110.040;2022-10-18T10:49:16;102864.06;;;23.68;51.45
64908;BME280;64365;-1.756;110.040;2022-10-18T10:51:44;102854.31;;;23.75;50.16
64908;BME280;64365;-1.756;110.040;2022-10-18T10:54:14;102864.69;;;23.80;49.97
64908;BME280;64365;-1.756;110.040;2022-10-18T10:56:51;102860.53;;;23.71;47.80
64908;BME280;64365;-1.756;110.040;2022-10-18T10:59:19;102866.47;;;23.59;49.11
64908;BME280;64365;-1.756;110.040;2022-10-18T11:01:48;102864.59;;;23.52;49.92
64908;BME280;64365;-1.756;110.040;2022-10-18T11:04:26;102862.09;;;23.34;49.68
64908;BME280;64365;-1.756;110.040;2022-10-18T11:07:05;102859.56;;;23.13;49.83
64908;BME280;64365;-1.756;110.040;2022-10-18T11:09:53;102871.22;;;23.06;51.52
64908;BME280;64365;-1.756;110.040;2022-10-18T11:12:31;102874.66;;;23.10;51.63
64908;BME280;64365;-1.756;110.040;2022-10-18T11:15:09;102876.22;;;23.11;50.63
64908;BME280;64365;-1.756;110.040;2022-10-18T11:17:41;102877.38;;;23.14;50.65
64908;BME280;64365;-1.756;110.040;2022-10-18T11:20:16;102873.91;;;23.10;51.65
64908;BME280;64365;-1.756;110.040;2022-10-18T11:22:54;102872.06;;;22.99;50.68
64908;BME280;64365;-1.756;110.040;2022-10-18T11:25:24;102876.03;;;22.84;50.39
64908;BME280;64365;-1.756;110.040;2022-10-18T11:27:56;102871.53;;;22.66;51.58
64908;BME280;64365;-1.756;110.040;2022-10-18T11:30:39;102875.03;;;22.60;51.89
64908;BME280;64365;-1.756;110.040;2022-10-18T11:33:21;102879.75;;;22.48;53.00
64908;BME280;64365;-1.756;110.040;2022-10-18T11:35:51;102878.97;;;22.48;52.16
64908;BME280;64365;-1.756;110.040;2022-10-18T11:38:39;102878.94;;;22.55;49.70
64908;BME280;64365;-1.756;110.040;2022-10-18T11:41:18;102881.91;;;22.71;52.16
64908;BME280;64365;-1.756;110.040;2022-10-18T11:43:51;102886.50;;;22.82;51.45
64908;BME280;64365;-1.756;110.040;2022-10-18T11:46:27;102876.41;;;22.86;52.05
64908;BME280;64365;-1.756;110.040;2022-10-18T11:49:05;102871.78;;;22.83;49.30
64908;BME280;64365;-1.756;110.040;2022-10-18T11:51:45;102876.09;;;22.77;51.80
64908;BME280;64365;-1.756;110.040;2022-10-18T11:54:27;102882.72;;;22.72;48.91
64908;BME280;64365;-1.756;110.040;2022-10-18T11:57:05;102880.41;;;22.67;51.20
64908;BME280;64365;-1.756;110.040;2022-10-18T11:59:36;102883.56;;;22.58;51.56
64908;BME280;64365;-1.756;110.040;2022-10-18T12:02:29;102879.78;;;22.45;50.67
64908;BME280;64365;-1.756;110.040;2022-10-18T12:05:04;102876.75;;;22.17;51.26
64908;BME280;64365;-1.756;110.040;2022-10-18T12:07:37;102864.44;;;22.09;50.73
64908;BME280;64365;-1.756;110.040;2022-10-18T12:10:07;102867.94;;;22.06;52.61
64908;BME280;64365;-1.756;110.040;2022-10-18T12:12:37;102868.31;;;22.04;51.49
64908;BME280;64365;-1.756;110.040;2022-10-18T12:15:13;102867.56;;;22.00;53.76
64908;BME280;64365;-1.756;110.040;2022-10-18T12:17:43;102863.66;;;22.09;52.89
64908;BME280;64365;-1.756;110.040;2022-10-18T12:20:14;102861.31;;;22.14;52.83
64908;BME280;64365;-1.756;110.040;2022-10-18T12:22:47;102862.09;;;22.11;52.96
64908;BME280;64365;-1.756;110.040;2022-10-18T12:25:16;102868.63;;;22.21;53.19
64908;BME280;64365;-1.756;110.040;2022-10-18T12:27:49;102859.38;;;22.15;50.52
64908;BME280;64365;-1.756;110.040;2022-10-18T12:30:23;102848.19;;;22.09;52.20
64908;BME280;64365;-1.756;110.040;2022-10-18T12:32:58;102859.00;;;22.16;53.72
64908;BME280;64365;-1.756;110.040;2022-10-18T12:35:29;102861.22;;;22.32;52.50
64908;BME280;64365;-1.756;110.040;2022-10-18T12:38:13;102851.09;;;22.51;50.41
64908;BME280;64365;-1.756;110.040;2022-10-18T12:40:43;102847.91;;;22.63;50.23